This is the latest recevied weather packets stored in our database for station/object W5CRT. If no packets are shown the sender has not sent any weather packets the latest 10 day(s).
| Time | Temp. | Humidity | Pressure | Rain* | Wind** | Luminosity | Snow |
|---|---|---|---|---|---|---|---|
| 1778101544 | 15.56° C | 80% | 1011.8 hPa | 0 mm | - | 326 W/m² | - |
| 1778101241 | 15° C | 80% | 1011.8 hPa | 0 mm | - | 351 W/m² | - |
| 1778100938 | 15° C | 80% | 1011.9 hPa | 0 mm | - | 322 W/m² | - |
| 1778100633 | 15° C | 78% | 1012.3 hPa | 0 mm | - | 221 W/m² | - |
| 1778100331 | 15.56° C | 79% | 1011.7 hPa | 0 mm | - | 433 W/m² | - |
| 1778100028 | 15° C | 79% | 1011.8 hPa | 0 mm | - | 428 W/m² | - |
| 1778099727 | 15° C | 81% | 1011.9 hPa | 0 mm | - | 332 W/m² | - |
| 1778099423 | 15° C | 81% | 1012.2 hPa | 0 mm | - | 277 W/m² | - |
| 1778099120 | 14.44° C | 81% | 1012.5 hPa | 0 mm | - | 290 W/m² | - |
| 1778098816 | 14.44° C | 81% | 1012.5 hPa | 0 mm | - | 221 W/m² | - |
| 1778098514 | 14.44° C | 80% | 1012.8 hPa | 0 mm | - | 121 W/m² | - |
| 1778098210 | 14.44° C | 81% | 1012.4 hPa | 0 mm | - | 172 W/m² | - |
| 1778097907 | 14.44° C | 81% | 1012.3 hPa | 0 mm | - | 237 W/m² | - |
| 1778097603 | 14.44° C | 82% | 1012.2 hPa | 0 mm | - | 293 W/m² | - |
| 1778097301 | 13.89° C | 83% | 1012.3 hPa | 0 mm | - | 223 W/m² | - |
| 1778096996 | 13.89° C | 82% | 1012.6 hPa | 0 mm | - | 159 W/m² | - |
| 1778096694 | 13.89° C | 82% | 1012.3 hPa | 0 mm | - | 173 W/m² | - |
| 1778096391 | 13.89° C | 83% | 1012.4 hPa | 0 mm | - | 184 W/m² | - |
| 1778096088 | 13.89° C | 83% | 1012.4 hPa | 0 mm | - | 203 W/m² | - |
| 1778095784 | 13.89° C | 83% | 1012.6 hPa | 0 mm | - | 173 W/m² | - |
| 1778095482 | 13.33° C | 84% | 1012.6 hPa | 0 mm | - | 156 W/m² | - |
| 1778095178 | 13.33° C | 84% | 1013 hPa | 0 mm | - | 96 W/m² | - |
| 1778094875 | 13.33° C | 84% | 1012.7 hPa | 0 mm | - | 109 W/m² | - |
| 1778094571 | 13.33° C | 85% | 1012.7 hPa | 0 mm | - | 115 W/m² | - |
| 1778094268 | 13.33° C | 84% | 1012.5 hPa | 0 mm | - | 105 W/m² | - |
* Rain latest hour (hover to see other rain measurements)
** Current wind speed in m/s (hover to see current wind gust speed)